Latest Weather Observations for Murrurundi Gap

IDN60801

Issued at 1:23 pm EDT Monday 30 November 2020 (issued every 10 minutes, with the page automatically refreshed every 10 minutes)

About weather observations | Map of weather stations | Latest weather observations for NSW | Other Formats
Station Details ID: 061392 Name: MURRURUNDI GAP AWS Lat: -31.74 Lon: 150.79 Height: 729.4 m
Data from the previous 72 hours. | See also: Recent months at Murrurundi Gap
Date/Time
EDT
Temp
°C
App
Temp
°C
Dew
Point
°C
Rel
Hum
%
Delta-T
°C
Wind Press
QNH
hPa
Press
MSL
hPa
Rain since
9am
mm
Dir  Spd
km/h
Gust
km/h
Spd
kts
Gust
kts
30/01:00pm 24.5 19.7 14.6 54 6.1 SE 33 46 18 25 1015.1 1012.0 0.0
30/12:30pm 23.5 17.9 14.5 57 5.5 ESE 37 50 20 27 1015.2 1012.1 0.0
30/12:00pm 22.8 17.1 14.1 58 5.3 SE 37 50 20 27 1015.4 1012.3 0.0
30/11:30am 22.8 17.2 14.4 59 5.1 SE 37 56 20 30 1015.6 1012.6 0.0
30/11:29am 22.8 17.2 14.4 59 5.1 SE 37 56 20 30 1015.5 1012.5 0.0
30/11:00am 22.0 15.8 13.9 60 4.9 SE 39 50 21 27 1015.8 1012.7 0.0
30/10:47am 21.6 16.0 13.2 59 5.0 SE 35 54 19 29 1015.6 1012.6 0.0
30/10:30am 21.0 14.1 12.9 60 4.8 SE 41 50 22 27 1015.9 1012.8 0.0
30/10:09am 21.0 14.7 13.4 62 4.5 ESE 39 57 21 31 1016.0 1012.9 0.0
30/10:00am 21.0 14.1 12.9 60 4.8 ESE 41 54 22 29 1015.9 1012.8 0.0
30/09:30am 20.3 13.8 13.0 63 4.3 SE 39 56 21 30 1015.9 1012.8 0.0
30/09:00am 19.2 11.9 12.9 67 3.7 SE 43 54 23 29 1015.8 1012.7 0.2
30/08:30am 18.4 11.5 12.8 70 3.2 SE 41 52 22 28 1015.9 1012.8 0.2
30/08:00am 16.7 9.1 12.3 75 2.5 SE 44 54 24 29 1015.6 1012.6 0.2
30/07:30am 16.5 9.0 12.7 78 2.2 SE 44 57 24 31 1015.2 1012.1 0.2
30/07:00am 15.2 7.8 13.2 88 1.2 SE 44 52 24 28 1015.0 1011.9 0.2
30/06:30am 14.4 7.6 13.1 92 0.7 SE 41 50 22 27 1014.6 1011.5 0.2
30/06:00am 14.5 7.3 13.2 92 0.7 SE 43 52 23 28 1014.1 1011.0 0.2
30/05:30am 14.6 7.5 13.5 93 0.6 SE 43 52 23 28 1013.6 1010.5 0.2
30/05:00am 14.7 7.7 13.7 94 0.6 SE 43 52 23 28 1013.4 1010.3 0.2
30/04:30am 14.9 8.0 13.9 94 0.6 SSE 43 54 23 29 1013.0 1009.8 0.2
30/04:00am 14.9 8.0 14.1 95 0.5 SSE 43 57 23 31 1012.9 1009.7 0.2
30/03:54am 15.0 8.9 14.2 95 0.5 SE 39 57 21 31 1012.7 1009.6 0.2
30/03:30am 15.0 9.4 14.4 96 0.4 SE 37 48 20 26 1012.9 1009.7 0.2
30/03:00am 15.2 8.5 14.6 96 0.4 SSE 43 50 23 27 1012.9 1009.7 0.2
30/02:36am 15.3 9.4 14.7 96 0.4 SSE 39 52 21 28 1012.6 1009.5 0.2
30/02:30am 15.4 9.2 14.8 96 0.4 SSE 41 54 22 29 1012.7 1009.6 0.2
30/02:00am 16.0 10.7 15.4 96 0.4 SE 37 50 20 27 1013.1 1010.0 0.2
30/01:30am 16.4 10.4 15.4 94 0.6 SSE 41 54 22 29 1012.5 1009.4 0.2
30/01:17am 16.7 11.2 15.7 94 0.6 SE 39 59 21 32 1012.9 1009.7 0.2
30/01:00am 17.1 11.2 15.6 91 0.9 SE 41 52 22 28 1013.2 1010.1 0.2
30/12:30am 18.0 11.8 16.0 88 1.2 SSE 43 56 23 30 1013.4 1010.3 0.2
30/12:20am 18.6 13.6 16.0 85 1.6 SSE 37 57 20 31 1013.1 1010.0 0.2
30/12:00am 18.9 13.6 16.3 85 1.6 SE 39 54 21 29 1013.1 1010.0 0.2
 
Date/Time
EDT
Temp
°C
App
Temp
°C
Dew
Point
°C
Rel
Hum
%
Delta-T
°C
Wind Press
QNH
hPa
Press
MSL
hPa
Rain since
9am
mm
Dir  Spd
km/h
Gust
km/h
Spd
kts
Gust
kts
29/11:47pm 19.0 13.3 16.2 84 1.7 SSE 41 59 22 32 1013.0 1009.8 0.2
29/11:30pm 20.9 16.1 15.7 72 3.2 SSE 35 50 19 27 1013.0 1009.8 0.0
29/11:28pm 20.9 16.7 15.7 72 3.2 SE 32 50 17 27 1013.1 1010.0 0.0
29/11:00pm 22.9 18.6 14.5 59 5.1 SE 30 41 16 22 1012.6 1009.5 0.0
29/10:30pm 24.9 22.1 13.1 48 7.1 SE 20 26 11 14 1012.6 1009.5 0.0
29/10:00pm 27.2 23.3 12.0 38 9.1 SE 24 32 13 17 1012.3 1009.2 0.0
29/09:30pm 27.5 24.6 11.1 36 9.6 ESE 17 20 9 11 1011.5 1008.3 0.0
29/09:00pm 29.6 27.9 9.7 29 11.5 SSW 9 13 5 7 1011.1 1008.0 0.0
29/08:30pm 29.7 26.6 10.3 30 11.4 NW 17 22 9 12 1009.7 1006.6 0.0
29/08:00pm 29.9 29.0 11.4 32 11.0 NW 7 11 4 6 1010.1 1006.9 0.0
29/07:30pm 30.5 29.0 11.9 31 11.2 SW 11 17 6 9 1009.9 1006.7 0.0
29/07:00pm 31.5 29.9 12.8 32 11.5 SW 13 24 7 13 1009.3 1006.1 0.0
29/06:30pm 32.4 29.0 12.6 30 12.1 WSW 22 33 12 18 1008.5 1005.3 0.0
29/06:00pm 32.3 28.6 11.5 28 12.6 NW 22 30 12 16 1007.9 1004.7 0.0
29/05:30pm 31.9 22.6 10.6 27 12.6 NW 50 76 27 41 1007.4 1004.2 0.0
29/05:26pm 32.1 21.7 10.8 27 12.7 NW 56 76 30 41 1007.1 1003.9 0.0
29/05:22pm 32.1 22.7 10.2 26 12.9 NW 50 76 27 41 1006.3 1003.1 0.0
29/05:00pm 33.9 25.4 8.5 21 14.8 WNW 43 65 23 35 1007.0 1003.8 0.0
29/04:43pm 34.4 25.6 8.2 20 15.2 NW 44 65 24 35 1006.5 1003.3 0.0
29/04:30pm 34.0 24.0 7.9 20 15.0 NW 50 65 27 35 1006.5 1003.3 0.0
29/04:00pm 34.5 22.3 7.5 19 15.5 NW 61 87 33 47 1006.0 1002.8 0.0
29/03:30pm 34.5 22.9 8.3 20 15.2 NW 59 78 32 42 1006.5 1003.3 0.0
29/03:00pm 34.6 22.5 7.6 19 15.5 NW 61 83 33 45 1006.7 1003.5 0.0
29/02:30pm 33.8 21.5 7.0 19 15.2 NW 61 83 33 45 1006.8 1003.6 0.0
29/02:07pm 33.6 22.4 8.3 21 14.6 NW 57 76 31 41 1007.9 1004.7 0.0
29/02:00pm 33.2 20.6 7.2 20 14.8 NW 63 80 34 43 1007.6 1004.4 0.0
29/01:30pm 32.8 20.3 7.6 21 14.3 NW 63 85 34 46 1008.5 1005.3 0.0
29/01:00pm 32.1 20.6 7.0 21 14.1 NW 57 78 31 42 1009.0 1005.8 0.0
29/12:30pm 31.3 19.5 5.7 20 14.0 NW 57 80 31 43 1009.1 1005.9 0.0
29/12:00pm 31.2 19.9 7.0 22 13.6 NW 56 76 30 41 1010.1 1006.9 0.0
29/11:30am 30.6 21.6 8.9 26 12.5 NW 46 65 25 35 1010.8 1007.7 0.0
29/11:00am 28.8 19.2 7.9 27 11.7 NW 48 67 26 36 1011.2 1008.1 0.0
29/10:30am 28.6 18.2 7.8 27 11.6 NW 52 67 28 36 1011.2 1008.1 0.0
29/10:15am 27.9 17.1 7.7 28 11.2 NW 54 76 29 41 1011.0 1007.9 0.0
29/10:00am 27.6 17.3 8.0 29 11.0 NW 52 65 28 35 1011.4 1008.2 0.0
29/09:35am 27.0 16.2 7.5 29 10.8 NW 54 72 29 39 1011.2 1008.1 0.0
29/09:30am 27.1 16.6 7.5 29 10.8 NW 52 67 28 36 1011.5 1008.3 0.0
29/09:18am 26.9 17.6 7.4 29 10.7 NW 46 65 25 35 1011.7 1008.5 0.0
29/09:00am 26.8 16.7 7.3 29 10.7 NW 50 63 27 34 1011.6 1008.4 0.0
29/08:30am 26.2 15.6 6.8 29 10.5 NW 52 67 28 36 1011.1 1008.0 0.0
29/08:19am 26.2 16.2 6.3 28 10.7 NW 48 65 26 35 1011.1 1008.0 0.0
29/08:00am 25.4 18.2 6.1 29 10.3 NNW 33 44 18 24 1011.2 1008.1 0.0
29/07:30am 25.4 18.3 5.6 28 10.5 NNW 32 41 17 22 1012.0 1008.9 0.0
29/07:00am 24.0 18.0 5.4 30 9.7 NNW 26 33 14 18 1013.2 1010.1 0.0
29/06:30am 23.8 18.5 5.2 30 9.7 NW 22 28 12 15 1013.7 1010.6 0.0
29/06:00am 25.0 18.1 4.7 27 10.6 W 30 44 16 24 1013.4 1010.3 0.0
29/05:30am 23.0 17.4 5.4 32 9.2 NW 24 28 13 15 1011.6 1008.4 0.0
29/05:00am 23.0 17.3 5.0 31 9.3 NW 24 28 13 15 1011.0 1007.9 0.0
29/04:30am 24.3 17.4 4.6 28 10.2 NW 30 35 16 19 1010.7 1007.6 0.0
29/04:00am 23.7 17.3 5.1 30 9.7 WNW 28 33 15 18 1010.8 1007.7 0.0
29/03:30am 24.3 17.5 5.1 29 10.0 NW 30 35 16 19 1010.7 1007.6 0.0
29/03:00am 25.6 18.2 5.2 27 10.8 NW 33 39 18 21 1010.4 1007.2 0.0
29/02:30am 25.4 18.3 5.6 28 10.5 NW 32 37 17 20 1010.8 1007.7 0.0
29/02:00am 27.0 18.5 5.3 25 11.6 NW 39 44 21 24 1011.1 1008.0 0.0
29/01:30am 26.3 17.9 5.8 27 11.0 NW 39 43 21 23 1011.6 1008.4 0.0
29/01:00am 26.4 18.9 6.4 28 10.8 NW 35 43 19 23 1011.9 1008.8 0.0
29/12:30am 27.3 19.0 6.1 26 11.4 NW 39 44 21 24 1012.0 1008.9 0.0
29/12:00am 27.3 18.7 6.7 27 11.2 NW 41 46 22 25 1012.2 1009.1 0.0
 
Date/Time
EDT
Temp
°C
App
Temp
°C
Dew
Point
°C
Rel
Hum
%
Delta-T
°C
Wind Press
QNH
hPa
Press
MSL
hPa
Rain since
9am
mm
Dir  Spd
km/h
Gust
km/h
Spd
kts
Gust
kts
28/11:30pm 26.4 19.0 6.9 29 10.6 NW 35 39 19 21 1012.1 1009.0 0.0
28/11:00pm 27.2 19.9 7.1 28 11.0 NW 35 41 19 22 1012.1 1009.0 0.0
28/10:30pm 28.1 20.3 6.8 26 11.7 NW 37 43 20 23 1012.2 1009.1 0.0
28/10:00pm 28.1 20.8 7.4 27 11.5 NW 35 39 19 21 1012.6 1009.5 0.0
28/09:30pm 28.4 21.2 7.6 27 11.6 NNW 35 39 19 21 1012.4 1009.3 0.0
28/09:00pm 28.6 22.0 7.8 27 11.6 NNW 32 37 17 20 1012.3 1009.2 0.0
28/08:30pm 29.2 22.6 7.7 26 12.0 NNW 32 37 17 20 1012.2 1009.1 0.0
28/08:00pm 29.4 23.6 7.9 26 12.1 NNW 28 33 15 18 1012.4 1009.3 0.0
28/07:30pm 30.1 24.3 7.9 25 12.5 NW 28 33 15 18 1012.4 1009.3 0.0
28/07:00pm 31.2 24.4 7.0 22 13.5 NW 32 37 17 20 1012.1 1009.0 0.0
28/06:30pm 31.9 25.5 6.9 21 14.0 NW 30 37 16 20 1012.0 1008.9 0.0
28/06:00pm 32.2 25.6 7.8 22 13.9 NW 32 41 17 22 1012.1 1009.0 0.0
28/05:30pm 32.7 25.8 8.9 23 13.8 NW 35 44 19 24 1012.2 1009.1 0.0
28/05:00pm 32.5 26.3 9.3 24 13.5 NW 32 43 17 23 1012.4 1009.3 0.0
28/04:41pm 32.7 26.3 9.5 24 13.6 NW 33 52 18 28 1012.3 1009.2 0.0
28/04:30pm 32.4 24.8 9.2 24 13.5 NW 39 50 21 27 1012.6 1009.5 0.0
28/04:00pm 32.6 25.2 10.0 25 13.3 NW 39 48 21 26 1013.0 1009.8 0.0
28/03:30pm 32.5 25.9 9.9 25 13.3 WNW 35 46 19 25 1013.4 1010.3 0.0
28/03:00pm 32.1 26.2 11.3 28 12.5 NW 33 48 18 26 1014.0 1010.9 0.0
28/02:30pm 31.7 25.5 11.5 29 12.1 NW 35 50 19 27 1014.4 1011.3 0.0
28/02:00pm 31.4 25.4 12.2 30 11.7 NW 35 46 19 25 1014.8 1011.7 0.0
28/01:30pm 30.7 25.4 13.0 33 10.8 NW 33 46 18 25 1015.0 1011.9 0.0
28/01:00pm 30.5 24.9 13.3 35 10.6 NW 35 44 19 24 1015.8 1012.7 0.0
28/12:30pm 29.1 23.4 12.9 37 9.9 NW 35 50 19 27 1016.0 1012.9 0.0
28/12:18pm 29.4 24.4 14.0 39 9.5 NNW 33 52 18 28 1016.4 1013.3 0.0
28/12:00pm 28.7 23.5 13.4 39 9.4 NW 33 48 18 26 1016.7 1013.7 0.0
28/11:30am 27.7 21.1 12.5 39 9.1 NW 39 48 21 26 1016.9 1013.9 0.0
28/11:00am 27.7 21.4 13.6 42 8.6 NW 39 50 21 27 1017.3 1014.2 0.0
28/10:30am 27.2 21.2 13.2 42 8.5 NW 37 46 20 25 1017.5 1014.4 0.0
28/10:00am 26.2 20.2 13.3 45 7.8 NW 37 46 20 25 1017.7 1014.6 0.0
28/09:30am 25.2 19.0 12.8 46 7.4 WNW 37 43 20 23 1017.8 1014.7 0.0
28/09:00am 24.7 18.7 13.3 49 6.8 NW 37 46 20 25 1017.9 1014.9 0.0
28/08:30am 24.4 19.6 13.9 52 6.4 NW 32 39 17 21 1018.0 1015.0 0.0
28/08:00am 23.7 18.5 12.7 50 6.5 NW 32 37 17 20 1017.7 1014.6 0.0
28/07:30am 22.9 18.0 12.5 52 6.1 NW 30 35 16 19 1017.5 1014.4 0.0
28/07:00am 22.5 17.9 12.2 52 6.0 NNW 28 37 15 20 1017.1 1014.1 0.0
28/06:30am 22.6 18.2 11.7 50 6.3 NNW 26 35 14 19 1016.7 1013.7 0.0
28/06:00am 22.4 18.4 11.8 51 6.2 NNW 24 33 13 18 1016.5 1013.4 0.0
28/05:30am 23.0 19.0 11.7 49 6.6 NNW 24 32 13 17 1016.3 1013.2 0.0
28/05:00am 22.7 18.6 11.4 49 6.5 NW 24 28 13 15 1016.2 1013.1 0.0
28/04:30am 22.9 19.2 11.6 49 6.6 NW 22 30 12 16 1016.1 1013.0 0.0
28/04:00am 23.5 20.3 11.9 48 6.8 NW 20 24 11 13 1016.0 1012.9 0.0
28/03:30am 23.0 19.8 12.0 50 6.4 NW 20 22 11 12 1015.8 1012.7 0.0
28/03:05am 23.6 20.9 11.6 47 7.0 WNW 17 19 9 10 1015.8 1012.7 0.0
28/03:00am 23.6 20.9 11.6 47 7.0 WNW 17 19 9 10 1015.9 1012.8 0.0
28/02:30am 25.1 23.4 11.3 42 8.0 WNW 11 15 6 8 1016.1 1013.0 0.0
28/02:25am 24.9 23.8 11.8 44 7.7 WNW 9 13 5 7 1016.1 1013.0 0.0
28/02:00am 25.4 26.0 11.9 43 8.0 CALM 0 0 0 0 1016.3 1013.2 0.0
28/01:30am 25.5 26.3 12.7 45 7.6 CALM 0 2 0 1 1016.6 1013.5 0.0
28/01:00am 24.3 23.1 12.9 49 6.8 ESE 11 13 6 7 1016.9 1013.9 0.0
28/12:30am 24.2 23.0 12.8 49 6.8 ESE 11 13 6 7 1017.1 1014.1 0.0
28/12:00am 24.2 22.7 13.1 50 6.6 ESE 13 15 7 8 1017.4 1014.3 0.0
 
Date/Time
EDT
Temp
°C
App
Temp
°C
Dew
Point
°C
Rel
Hum
%
Delta-T
°C
Wind Press
QNH
hPa
Press
MSL
hPa
Rain since
9am
mm
Dir  Spd
km/h
Gust
km/h
Spd
kts
Gust
kts
27/11:30pm 24.1 22.7 13.3 51 6.5 ESE 13 15 7 8 1017.6 1014.5 0.0
27/11:00pm 24.0 22.5 13.2 50 6.5 ESE 13 15 7 8 1017.7 1014.6 0.0
27/10:30pm 24.4 23.0 13.3 50 6.7 ESE 13 15 7 8 1017.6 1014.5 0.0
27/10:00pm 24.5 23.0 13.1 49 6.8 ESE 13 13 7 7 1017.6 1014.5 0.0
27/09:30pm 25.2 24.2 13.4 48 7.1 ESE 11 15 6 8 1017.5 1014.4 0.0
27/09:00pm 24.4 23.1 13.6 51 6.5 ESE 13 15 7 8 1017.3 1014.2 0.0
27/08:30pm 25.8 25.2 13.6 47 7.4 ESE 9 11 5 6 1016.9 1013.9 0.0
27/08:00pm 26.5 25.8 13.3 44 8.0 SE 9 13 5 7 1016.8 1013.8 0.0
27/07:30pm 27.2 25.0 13.2 42 8.5 S 17 19 9 10 1016.8 1013.8 0.0
27/07:00pm 28.4 26.8 12.7 38 9.5 SSE 13 17 7 9 1016.5 1013.4 0.0
27/06:30pm 29.1 27.3 12.1 35 10.2 SSE 13 17 7 9 1016.3 1013.2 0.0
27/06:00pm 29.7 28.8 12.6 35 10.4 SE 9 11 5 6 1016.1 1013.0 0.0
27/05:30pm 30.4 29.5 13.7 36 10.3 SSE 11 15 6 8 1016.2 1013.1 0.0
27/05:00pm 30.7 29.9 13.0 33 10.8 SSE 9 15 5 8 1016.2 1013.1 0.0
27/04:30pm 30.6 30.0 13.4 35 10.6 ESE 9 17 5 9 1016.4 1013.3 0.0
27/04:00pm 30.8 29.3 13.1 34 10.9 ESE 13 19 7 10 1016.7 1013.7 0.0
27/03:30pm 31.1 30.6 13.8 34 10.7 ESE 9 20 5 11 1017.0 1014.0 0.0
27/03:00pm 30.4 29.5 13.7 36 10.3 SE 11 17 6 9 1017.4 1014.3 0.0
27/02:30pm 30.1 29.6 16.9 45 8.5 ESE 15 20 8 11 1017.6 1014.5 0.0
27/02:00pm 29.8 30.4 17.6 48 8.0 SE 11 24 6 13 1018.2 1015.2 0.0
27/01:30pm 28.6 27.4 16.2 47 7.9 SE 17 22 9 12 1018.5 1015.5 0.0

Other formats

Comma delimited format used in spreadsheet applications
http://www.bom.gov.au/fwo/IDN60801/IDN60801.95747.axf

JavaScript Object Notation format (JSON) in row-major order
http://www.bom.gov.au/fwo/IDN60801/IDN60801.95747.json

Data quality

Most of these data are generated automatically and are frequently updated. Quality checks on data are not normally performed. It is possible for incorrect values to appear. Refer to information at About Latest Weather Observations and please check the disclaimer before using these data.